sensor_id;sensor_type;location;lat;lon;timestamp;temperature;humidity
7196;DHT22;3639;51.308;5.624;2024-03-17T00:02:19;6.00;99.90
7196;DHT22;3639;51.308;5.624;2024-03-17T00:04:45;6.00;99.90
7196;DHT22;3639;51.308;5.624;2024-03-17T00:07:12;6.00;99.90
7196;DHT22;3639;51.308;5.624;2024-03-17T00:09:38;6.00;99.90
7196;DHT22;3639;51.308;5.624;2024-03-17T00:12:04;5.90;99.90
7196;DHT22;3639;51.308;5.624;2024-03-17T00:14:29;5.90;99.90
7196;DHT22;3639;51.308;5.624;2024-03-17T00:16:55;5.90;99.90
7196;DHT22;3639;51.308;5.624;2024-03-17T00:19:21;5.80;99.90
7196;DHT22;3639;51.308;5.624;2024-03-17T00:21:50;6.00;99.90
7196;DHT22;3639;51.308;5.624;2024-03-17T00:24:19;5.90;99.90
7196;DHT22;3639;51.308;5.624;2024-03-17T00:26:48;5.90;99.90
7196;DHT22;3639;51.308;5.624;2024-03-17T00:29:14;5.90;99.90
7196;DHT22;3639;51.308;5.624;2024-03-17T00:31:40;5.90;99.90
7196;DHT22;3639;51.308;5.624;2024-03-17T00:34:06;5.90;99.90
7196;DHT22;3639;51.308;5.624;2024-03-17T00:36:32;5.90;99.90
7196;DHT22;3639;51.308;5.624;2024-03-17T00:38:57;5.90;99.90
7196;DHT22;3639;51.308;5.624;2024-03-17T00:41:23;5.90;99.90
7196;DHT22;3639;51.308;5.624;2024-03-17T00:43:49;6.00;99.90
7196;DHT22;3639;51.308;5.624;2024-03-17T00:46:18;6.00;99.90
7196;DHT22;3639;51.308;5.624;2024-03-17T00:48:49;6.00;99.90
7196;DHT22;3639;51.308;5.624;2024-03-17T00:51:15;6.00;99.90
7196;DHT22;3639;51.308;5.624;2024-03-17T00:53:40;6.00;99.90
7196;DHT22;3639;51.308;5.624;2024-03-17T00:56:06;6.00;99.90
7196;DHT22;3639;51.308;5.624;2024-03-17T00:58:32;6.00;99.90
7196;DHT22;3639;51.308;5.624;2024-03-17T01:00:57;6.00;99.90
7196;DHT22;3639;51.308;5.624;2024-03-17T01:03:23;6.00;99.90
7196;DHT22;3639;51.308;5.624;2024-03-17T01:05:49;6.00;99.90
7196;DHT22;3639;51.308;5.624;2024-03-17T01:08:18;6.00;99.90
7196;DHT22;3639;51.308;5.624;2024-03-17T01:10:44;6.00;99.90
7196;DHT22;3639;51.308;5.624;2024-03-17T01:13:10;6.00;99.90
7196;DHT22;3639;51.308;5.624;2024-03-17T01:15:37;6.00;99.90
7196;DHT22;3639;51.308;5.624;2024-03-17T01:18:03;6.00;99.90
7196;DHT22;3639;51.308;5.624;2024-03-17T01:20:33;6.00;99.90
7196;DHT22;3639;51.308;5.624;2024-03-17T01:22:59;5.90;99.90
7196;DHT22;3639;51.308;5.624;2024-03-17T01:25:25;5.90;99.90
7196;DHT22;3639;51.308;5.624;2024-03-17T01:27:52;5.90;99.90
7196;DHT22;3639;51.308;5.624;2024-03-17T01:30:17;5.90;99.90
7196;DHT22;3639;51.308;5.624;2024-03-17T01:32:45;5.80;99.90
7196;DHT22;3639;51.308;5.624;2024-03-17T01:35:11;5.80;99.90
7196;DHT22;3639;51.308;5.624;2024-03-17T01:37:37;5.80;99.90
7196;DHT22;3639;51.308;5.624;2024-03-17T01:40:03;5.80;99.90
7196;DHT22;3639;51.308;5.624;2024-03-17T01:42:39;5.80;99.90
7196;DHT22;3639;51.308;5.624;2024-03-17T01:45:23;5.80;99.90
7196;DHT22;3639;51.308;5.624;2024-03-17T01:47:50;5.80;99.90
7196;DHT22;3639;51.308;5.624;2024-03-17T01:50:15;5.80;99.90
7196;DHT22;3639;51.308;5.624;2024-03-17T01:52:45;5.80;99.90
7196;DHT22;3639;51.308;5.624;2024-03-17T01:55:11;5.80;99.90
7196;DHT22;3639;51.308;5.624;2024-03-17T01:57:37;5.80;99.90
7196;DHT22;3639;51.308;5.624;2024-03-17T02:00:04;5.80;99.90
7196;DHT22;3639;51.308;5.624;2024-03-17T02:02:34;5.80;99.90
7196;DHT22;3639;51.308;5.624;2024-03-17T02:04:59;5.80;99.90
7196;DHT22;3639;51.308;5.624;2024-03-17T02:07:25;5.80;99.90
7196;DHT22;3639;51.308;5.624;2024-03-17T02:09:51;5.80;99.90
7196;DHT22;3639;51.308;5.624;2024-03-17T02:12:16;5.80;99.90
7196;DHT22;3639;51.308;5.624;2024-03-17T02:14:42;5.70;99.90
7196;DHT22;3639;51.308;5.624;2024-03-17T02:17:08;5.70;99.90
7196;DHT22;3639;51.308;5.624;2024-03-17T02:19:34;5.70;99.90
7196;DHT22;3639;51.308;5.624;2024-03-17T02:22:00;5.70;99.90
7196;DHT22;3639;51.308;5.624;2024-03-17T02:24:25;5.70;99.90
7196;DHT22;3639;51.308;5.624;2024-03-17T02:26:51;5.60;99.90
7196;DHT22;3639;51.308;5.624;2024-03-17T02:29:17;5.70;99.90
7196;DHT22;3639;51.308;5.624;2024-03-17T02:31:42;5.70;99.90
7196;DHT22;3639;51.308;5.624;2024-03-17T02:34:08;5.70;99.90
7196;DHT22;3639;51.308;5.624;2024-03-17T02:36:34;5.80;99.90
7196;DHT22;3639;51.308;5.624;2024-03-17T02:38:59;5.80;99.90
7196;DHT22;3639;51.308;5.624;2024-03-17T02:41:44;5.90;99.90
7196;DHT22;3639;51.308;5.624;2024-03-17T02:44:09;5.90;99.90
7196;DHT22;3639;51.308;5.624;2024-03-17T02:46:36;5.90;99.90
7196;DHT22;3639;51.308;5.624;2024-03-17T02:49:03;6.00;99.90
7196;DHT22;3639;51.308;5.624;2024-03-17T02:51:28;6.00;99.90
7196;DHT22;3639;51.308;5.624;2024-03-17T02:53:54;6.10;99.90
7196;DHT22;3639;51.308;5.624;2024-03-17T02:56:20;6.10;99.90
7196;DHT22;3639;51.308;5.624;2024-03-17T02:58:47;6.10;99.90
7196;DHT22;3639;51.308;5.624;2024-03-17T03:01:14;6.20;99.90
7196;DHT22;3639;51.308;5.624;2024-03-17T03:03:43;6.20;99.90
7196;DHT22;3639;51.308;5.624;2024-03-17T03:06:09;6.20;99.90
7196;DHT22;3639;51.308;5.624;2024-03-17T03:08:41;6.20;99.90
7196;DHT22;3639;51.308;5.624;2024-03-17T03:11:08;6.20;99.90
7196;DHT22;3639;51.308;5.624;2024-03-17T03:13:44;6.30;99.90
7196;DHT22;3639;51.308;5.624;2024-03-17T03:16:11;6.30;99.90
7196;DHT22;3639;51.308;5.624;2024-03-17T03:18:39;6.30;99.90
7196;DHT22;3639;51.308;5.624;2024-03-17T03:21:05;6.30;99.90
7196;DHT22;3639;51.308;5.624;2024-03-17T03:23:31;6.30;99.90
7196;DHT22;3639;51.308;5.624;2024-03-17T03:26:01;6.30;99.90
7196;DHT22;3639;51.308;5.624;2024-03-17T03:28:31;6.40;99.90
7196;DHT22;3639;51.308;5.624;2024-03-17T03:30:57;6.40;99.90
7196;DHT22;3639;51.308;5.624;2024-03-17T03:33:23;6.40;99.90
7196;DHT22;3639;51.308;5.624;2024-03-17T03:35:49;6.40;99.90
7196;DHT22;3639;51.308;5.624;2024-03-17T03:38:16;6.40;99.90
7196;DHT22;3639;51.308;5.624;2024-03-17T03:40:42;6.50;99.90
7196;DHT22;3639;51.308;5.624;2024-03-17T03:43:11;6.50;99.90
7196;DHT22;3639;51.308;5.624;2024-03-17T03:45:37;6.50;99.90
7196;DHT22;3639;51.308;5.624;2024-03-17T03:48:03;6.50;99.90
7196;DHT22;3639;51.308;5.624;2024-03-17T03:50:29;6.50;99.90
7196;DHT22;3639;51.308;5.624;2024-03-17T03:52:55;6.50;99.90
7196;DHT22;3639;51.308;5.624;2024-03-17T03:55:20;6.50;99.90
7196;DHT22;3639;51.308;5.624;2024-03-17T03:57:46;6.50;99.90
7196;DHT22;3639;51.308;5.624;2024-03-17T04:00:14;6.50;99.90
7196;DHT22;3639;51.308;5.624;2024-03-17T04:02:40;6.50;99.90
7196;DHT22;3639;51.308;5.624;2024-03-17T04:05:06;6.50;99.90
7196;DHT22;3639;51.308;5.624;2024-03-17T04:07:31;6.50;99.90
7196;DHT22;3639;51.308;5.624;2024-03-17T04:09:57;6.40;99.90
7196;DHT22;3639;51.308;5.624;2024-03-17T04:12:24;6.40;99.90
7196;DHT22;3639;51.308;5.624;2024-03-17T04:14:50;6.40;99.90
7196;DHT22;3639;51.308;5.624;2024-03-17T04:17:21;6.30;99.90
7196;DHT22;3639;51.308;5.624;2024-03-17T04:19:51;6.30;99.90
7196;DHT22;3639;51.308;5.624;2024-03-17T04:22:17;6.30;99.90
7196;DHT22;3639;51.308;5.624;2024-03-17T04:24:51;6.20;99.90
7196;DHT22;3639;51.308;5.624;2024-03-17T04:27:24;6.20;99.90
7196;DHT22;3639;51.308;5.624;2024-03-17T04:29:54;6.30;99.90
7196;DHT22;3639;51.308;5.624;2024-03-17T04:32:21;6.30;99.90
7196;DHT22;3639;51.308;5.624;2024-03-17T04:34:46;6.30;99.90
7196;DHT22;3639;51.308;5.624;2024-03-17T04:37:12;6.30;99.90
7196;DHT22;3639;51.308;5.624;2024-03-17T04:39:39;6.30;99.90
7196;DHT22;3639;51.308;5.624;2024-03-17T04:42:05;6.30;99.90
7196;DHT22;3639;51.308;5.624;2024-03-17T04:44:32;6.30;99.90
7196;DHT22;3639;51.308;5.624;2024-03-17T04:46:58;6.30;99.90
7196;DHT22;3639;51.308;5.624;2024-03-17T04:49:23;6.30;99.90
7196;DHT22;3639;51.308;5.624;2024-03-17T04:51:49;6.30;99.90
7196;DHT22;3639;51.308;5.624;2024-03-17T04:54:15;6.20;99.90
7196;DHT22;3639;51.308;5.624;2024-03-17T04:56:40;6.30;99.90
7196;DHT22;3639;51.308;5.624;2024-03-17T04:59:06;6.30;99.90
7196;DHT22;3639;51.308;5.624;2024-03-17T05:01:31;6.20;99.90
7196;DHT22;3639;51.308;5.624;2024-03-17T05:04:04;6.30;99.90
7196;DHT22;3639;51.308;5.624;2024-03-17T05:06:29;6.20;99.90
7196;DHT22;3639;51.308;5.624;2024-03-17T05:08:55;6.10;99.90
7196;DHT22;3639;51.308;5.624;2024-03-17T05:11:21;6.10;99.90
7196;DHT22;3639;51.308;5.624;2024-03-17T05:13:46;6.00;99.90
7196;DHT22;3639;51.308;5.624;2024-03-17T05:16:12;6.00;99.90
7196;DHT22;3639;51.308;5.624;2024-03-17T05:18:37;5.90;99.90
7196;DHT22;3639;51.308;5.624;2024-03-17T05:21:06;5.90;99.90
7196;DHT22;3639;51.308;5.624;2024-03-17T05:23:34;5.80;99.90
7196;DHT22;3639;51.308;5.624;2024-03-17T05:26:00;5.70;99.90
7196;DHT22;3639;51.308;5.624;2024-03-17T05:28:27;5.80;99.90
7196;DHT22;3639;51.308;5.624;2024-03-17T05:30:53;5.70;99.90
7196;DHT22;3639;51.308;5.624;2024-03-17T05:33:20;5.70;99.90
7196;DHT22;3639;51.308;5.624;2024-03-17T05:35:56;5.60;99.90
7196;DHT22;3639;51.308;5.624;2024-03-17T05:38:26;5.60;99.90
7196;DHT22;3639;51.308;5.624;2024-03-17T05:41:03;5.50;99.90
7196;DHT22;3639;51.308;5.624;2024-03-17T05:43:30;5.50;99.90
7196;DHT22;3639;51.308;5.624;2024-03-17T05:46:00;5.50;99.90
7196;DHT22;3639;51.308;5.624;2024-03-17T05:48:40;5.50;99.90
7196;DHT22;3639;51.308;5.624;2024-03-17T05:51:09;5.50;99.90
7196;DHT22;3639;51.308;5.624;2024-03-17T05:53:36;5.40;99.90
7196;DHT22;3639;51.308;5.624;2024-03-17T05:56:03;5.40;99.90
7196;DHT22;3639;51.308;5.624;2024-03-17T05:58:29;5.40;99.90
7196;DHT22;3639;51.308;5.624;2024-03-17T06:00:55;5.40;99.90
7196;DHT22;3639;51.308;5.624;2024-03-17T06:03:21;5.40;99.90
7196;DHT22;3639;51.308;5.624;2024-03-17T06:05:47;5.40;99.90
7196;DHT22;3639;51.308;5.624;2024-03-17T06:08:14;5.40;99.90
7196;DHT22;3639;51.308;5.624;2024-03-17T06:10:47;5.30;99.90
7196;DHT22;3639;51.308;5.624;2024-03-17T06:13:14;5.30;99.90
7196;DHT22;3639;51.308;5.624;2024-03-17T06:15:42;5.30;99.90
7196;DHT22;3639;51.308;5.624;2024-03-17T06:18:11;5.30;99.90
7196;DHT22;3639;51.308;5.624;2024-03-17T06:20:43;5.30;99.90
7196;DHT22;3639;51.308;5.624;2024-03-17T06:23:12;5.40;99.90
7196;DHT22;3639;51.308;5.624;2024-03-17T06:25:45;5.30;99.90
7196;DHT22;3639;51.308;5.624;2024-03-17T06:28:13;5.30;99.90
7196;DHT22;3639;51.308;5.624;2024-03-17T06:30:43;5.30;99.90
7196;DHT22;3639;51.308;5.624;2024-03-17T06:33:11;5.30;99.90
7196;DHT22;3639;51.308;5.624;2024-03-17T06:35:37;5.40;99.90
7196;DHT22;3639;51.308;5.624;2024-03-17T06:38:03;5.40;99.90
7196;DHT22;3639;51.308;5.624;2024-03-17T06:40:29;5.40;99.90
7196;DHT22;3639;51.308;5.624;2024-03-17T06:42:56;5.50;99.90
7196;DHT22;3639;51.308;5.624;2024-03-17T06:45:21;5.50;99.90
7196;DHT22;3639;51.308;5.624;2024-03-17T06:47:47;5.60;99.90
7196;DHT22;3639;51.308;5.624;2024-03-17T06:50:13;5.70;99.90
7196;DHT22;3639;51.308;5.624;2024-03-17T06:52:38;5.80;99.90
7196;DHT22;3639;51.308;5.624;2024-03-17T06:55:05;5.90;99.90
7196;DHT22;3639;51.308;5.624;2024-03-17T06:57:32;6.00;99.90
7196;DHT22;3639;51.308;5.624;2024-03-17T06:59:59;6.10;99.90
7196;DHT22;3639;51.308;5.624;2024-03-17T07:02:24;6.30;99.90
7196;DHT22;3639;51.308;5.624;2024-03-17T07:04:50;6.40;99.90
7196;DHT22;3639;51.308;5.624;2024-03-17T07:07:16;6.60;99.90
7196;DHT22;3639;51.308;5.624;2024-03-17T07:09:41;6.70;99.90
7196;DHT22;3639;51.308;5.624;2024-03-17T07:12:08;6.80;99.90
7196;DHT22;3639;51.308;5.624;2024-03-17T07:14:34;6.90;99.90
7196;DHT22;3639;51.308;5.624;2024-03-17T07:17:00;7.00;99.90
7196;DHT22;3639;51.308;5.624;2024-03-17T07:19:25;7.10;99.90
7196;DHT22;3639;51.308;5.624;2024-03-17T07:21:51;7.10;99.90
7196;DHT22;3639;51.308;5.624;2024-03-17T07:24:16;7.20;99.90
7196;DHT22;3639;51.308;5.624;2024-03-17T07:26:42;7.20;99.90
7196;DHT22;3639;51.308;5.624;2024-03-17T07:29:07;7.30;99.90
7196;DHT22;3639;51.308;5.624;2024-03-17T07:31:34;7.40;99.90
7196;DHT22;3639;51.308;5.624;2024-03-17T07:33:59;7.40;99.90
7196;DHT22;3639;51.308;5.624;2024-03-17T07:36:25;7.50;99.90
7196;DHT22;3639;51.308;5.624;2024-03-17T07:38:50;7.60;99.90
7196;DHT22;3639;51.308;5.624;2024-03-17T07:41:18;7.70;99.90
7196;DHT22;3639;51.308;5.624;2024-03-17T07:43:45;7.90;99.90
7196;DHT22;3639;51.308;5.624;2024-03-17T07:46:11;8.10;99.90
7196;DHT22;3639;51.308;5.624;2024-03-17T07:48:39;8.30;99.90
7196;DHT22;3639;51.308;5.624;2024-03-17T07:51:10;8.40;99.90
7196;DHT22;3639;51.308;5.624;2024-03-17T07:53:37;8.40;99.90
7196;DHT22;3639;51.308;5.624;2024-03-17T07:56:08;8.50;99.90
7196;DHT22;3639;51.308;5.624;2024-03-17T07:58:39;8.60;99.90
7196;DHT22;3639;51.308;5.624;2024-03-17T08:01:06;8.70;99.90
7196;DHT22;3639;51.308;5.624;2024-03-17T08:03:33;8.70;99.90
7196;DHT22;3639;51.308;5.624;2024-03-17T08:06:00;8.80;99.90
7196;DHT22;3639;51.308;5.624;2024-03-17T08:08:26;8.80;99.90
7196;DHT22;3639;51.308;5.624;2024-03-17T08:10:52;8.80;99.90
7196;DHT22;3639;51.308;5.624;2024-03-17T08:13:18;8.90;99.90
7196;DHT22;3639;51.308;5.624;2024-03-17T08:15:45;8.90;99.90
7196;DHT22;3639;51.308;5.624;2024-03-17T08:18:11;8.90;99.90
7196;DHT22;3639;51.308;5.624;2024-03-17T08:20:40;8.90;99.90
7196;DHT22;3639;51.308;5.624;2024-03-17T08:23:08;9.00;99.90
7196;DHT22;3639;51.308;5.624;2024-03-17T08:25:34;9.20;99.90
7196;DHT22;3639;51.308;5.624;2024-03-17T08:28:00;9.30;99.90
7196;DHT22;3639;51.308;5.624;2024-03-17T08:30:26;9.40;99.90
7196;DHT22;3639;51.308;5.624;2024-03-17T08:32:51;9.50;99.90
7196;DHT22;3639;51.308;5.624;2024-03-17T08:35:17;9.50;99.90
7196;DHT22;3639;51.308;5.624;2024-03-17T08:37:42;9.60;99.90
7196;DHT22;3639;51.308;5.624;2024-03-17T08:40:09;9.70;99.90
7196;DHT22;3639;51.308;5.624;2024-03-17T08:42:36;9.70;99.90
7196;DHT22;3639;51.308;5.624;2024-03-17T08:45:01;9.70;99.90
7196;DHT22;3639;51.308;5.624;2024-03-17T08:47:28;9.80;99.90
7196;DHT22;3639;51.308;5.624;2024-03-17T08:49:54;9.80;99.90
7196;DHT22;3639;51.308;5.624;2024-03-17T08:52:19;9.80;99.90
7196;DHT22;3639;51.308;5.624;2024-03-17T08:54:49;9.80;99.90
7196;DHT22;3639;51.308;5.624;2024-03-17T08:57:18;9.90;99.90
7196;DHT22;3639;51.308;5.624;2024-03-17T08:59:46;9.90;99.90
7196;DHT22;3639;51.308;5.624;2024-03-17T09:02:13;10.10;99.90
7196;DHT22;3639;51.308;5.624;2024-03-17T09:04:42;10.30;99.90
7196;DHT22;3639;51.308;5.624;2024-03-17T09:07:07;10.40;99.90
7196;DHT22;3639;51.308;5.624;2024-03-17T09:09:33;10.50;99.90
7196;DHT22;3639;51.308;5.624;2024-03-17T09:11:59;10.60;99.90
7196;DHT22;3639;51.308;5.624;2024-03-17T09:14:25;10.70;99.90
7196;DHT22;3639;51.308;5.624;2024-03-17T09:16:50;11.00;99.90
7196;DHT22;3639;51.308;5.624;2024-03-17T09:19:16;11.10;99.90
7196;DHT22;3639;51.308;5.624;2024-03-17T09:21:41;11.20;99.90
7196;DHT22;3639;51.308;5.624;2024-03-17T09:24:08;11.40;99.90
7196;DHT22;3639;51.308;5.624;2024-03-17T09:26:34;11.60;99.90
7196;DHT22;3639;51.308;5.624;2024-03-17T09:29:01;11.70;99.90
7196;DHT22;3639;51.308;5.624;2024-03-17T09:31:26;11.80;99.90
7196;DHT22;3639;51.308;5.624;2024-03-17T09:33:52;12.00;99.90
7196;DHT22;3639;51.308;5.624;2024-03-17T09:36:17;12.10;99.90
7196;DHT22;3639;51.308;5.624;2024-03-17T09:38:44;12.20;99.90
7196;DHT22;3639;51.308;5.624;2024-03-17T09:41:23;12.20;99.90
7196;DHT22;3639;51.308;5.624;2024-03-17T09:43:53;12.30;99.90
7196;DHT22;3639;51.308;5.624;2024-03-17T09:46:19;12.40;99.90
7196;DHT22;3639;51.308;5.624;2024-03-17T09:48:46;12.40;99.90
7196;DHT22;3639;51.308;5.624;2024-03-17T09:51:22;12.40;99.90
7196;DHT22;3639;51.308;5.624;2024-03-17T09:53:49;12.40;99.90
7196;DHT22;3639;51.308;5.624;2024-03-17T09:56:16;12.50;99.90
7196;DHT22;3639;51.308;5.624;2024-03-17T09:58:44;12.70;99.90
7196;DHT22;3639;51.308;5.624;2024-03-17T10:01:10;12.80;99.90
7196;DHT22;3639;51.308;5.624;2024-03-17T10:03:49;13.00;99.90
7196;DHT22;3639;51.308;5.624;2024-03-17T10:06:21;13.20;99.90
7196;DHT22;3639;51.308;5.624;2024-03-17T10:08:52;13.30;99.90
7196;DHT22;3639;51.308;5.624;2024-03-17T10:11:19;13.40;99.90
7196;DHT22;3639;51.308;5.624;2024-03-17T10:13:46;13.40;99.90
7196;DHT22;3639;51.308;5.624;2024-03-17T10:16:26;13.50;99.90
7196;DHT22;3639;51.308;5.624;2024-03-17T10:19:12;13.60;99.90
7196;DHT22;3639;51.308;5.624;2024-03-17T10:21:39;13.70;99.90
7196;DHT22;3639;51.308;5.624;2024-03-17T10:24:10;13.70;99.90
7196;DHT22;3639;51.308;5.624;2024-03-17T10:26:58;13.90;99.90
7196;DHT22;3639;51.308;5.624;2024-03-17T10:31:53;13.90;99.90
7196;DHT22;3639;51.308;5.624;2024-03-17T10:34:19;13.90;99.90
7196;DHT22;3639;51.308;5.624;2024-03-17T10:36:46;13.90;99.90
7196;DHT22;3639;51.308;5.624;2024-03-17T10:39:27;13.80;99.90
7196;DHT22;3639;51.308;5.624;2024-03-17T10:41:57;13.80;99.90
7196;DHT22;3639;51.308;5.624;2024-03-17T10:44:26;13.90;99.90
7196;DHT22;3639;51.308;5.624;2024-03-17T10:46:54;14.00;99.90
7196;DHT22;3639;51.308;5.624;2024-03-17T10:49:21;14.10;99.90
7196;DHT22;3639;51.308;5.624;2024-03-17T10:51:53;14.20;99.90
7196;DHT22;3639;51.308;5.624;2024-03-17T10:54:24;14.20;99.90
7196;DHT22;3639;51.308;5.624;2024-03-17T10:57:03;14.20;99.90
7196;DHT22;3639;51.308;5.624;2024-03-17T10:59:42;14.30;99.90
7196;DHT22;3639;51.308;5.624;2024-03-17T11:02:24;14.40;99.90
7196;DHT22;3639;51.308;5.624;2024-03-17T11:04:52;14.50;99.90
7196;DHT22;3639;51.308;5.624;2024-03-17T11:07:19;14.50;99.90
7196;DHT22;3639;51.308;5.624;2024-03-17T11:09:46;14.60;99.90
7196;DHT22;3639;51.308;5.624;2024-03-17T11:12:42;14.60;99.90
7196;DHT22;3639;51.308;5.624;2024-03-17T11:15:35;14.60;99.90
7196;DHT22;3639;51.308;5.624;2024-03-17T11:20:36;14.70;99.90
7196;DHT22;3639;51.308;5.624;2024-03-17T11:23:02;14.70;99.90
7196;DHT22;3639;51.308;5.624;2024-03-17T11:28:03;14.70;99.90
7196;DHT22;3639;51.308;5.624;2024-03-17T11:41:45;14.80;99.90
7196;DHT22;3639;51.308;5.624;2024-03-17T11:47:00;14.80;99.90
7196;DHT22;3639;51.308;5.624;2024-03-17T11:51:55;14.80;99.90
7196;DHT22;3639;51.308;5.624;2024-03-17T11:54:23;14.80;99.90
7196;DHT22;3639;51.308;5.624;2024-03-17T11:56:53;14.80;99.90
7196;DHT22;3639;51.308;5.624;2024-03-17T11:59:20;14.80;99.90
7196;DHT22;3639;51.308;5.624;2024-03-17T12:01:46;14.70;99.90
7196;DHT22;3639;51.308;5.624;2024-03-17T12:04:14;14.70;99.90
7196;DHT22;3639;51.308;5.624;2024-03-17T12:06:44;14.60;99.90
7196;DHT22;3639;51.308;5.624;2024-03-17T12:09:20;14.60;99.90
7196;DHT22;3639;51.308;5.624;2024-03-17T12:12:08;14.60;99.90
7196;DHT22;3639;51.308;5.624;2024-03-17T12:14:32;14.60;99.90
7196;DHT22;3639;51.308;5.624;2024-03-17T12:16:59;14.60;99.90
7196;DHT22;3639;51.308;5.624;2024-03-17T12:19:26;14.60;99.90
7196;DHT22;3639;51.308;5.624;2024-03-17T12:21:54;14.50;99.90
7196;DHT22;3639;51.308;5.624;2024-03-17T12:24:21;14.50;99.90
7196;DHT22;3639;51.308;5.624;2024-03-17T12:26:49;14.50;99.90
7196;DHT22;3639;51.308;5.624;2024-03-17T12:32:02;14.50;99.90
7196;DHT22;3639;51.308;5.624;2024-03-17T12:34:30;14.50;99.90
7196;DHT22;3639;51.308;5.624;2024-03-17T12:36:56;14.50;99.90
7196;DHT22;3639;51.308;5.624;2024-03-17T12:39:30;14.40;99.90
7196;DHT22;3639;51.308;5.624;2024-03-17T12:42:14;14.50;99.90
7196;DHT22;3639;51.308;5.624;2024-03-17T12:44:47;14.50;99.90
7196;DHT22;3639;51.308;5.624;2024-03-17T12:47:17;14.60;99.90
7196;DHT22;3639;51.308;5.624;2024-03-17T12:49:47;14.60;99.90
7196;DHT22;3639;51.308;5.624;2024-03-17T12:52:20;14.70;99.90
7196;DHT22;3639;51.308;5.624;2024-03-17T12:55:03;14.60;99.90
7196;DHT22;3639;51.308;5.624;2024-03-17T13:00:45;14.60;99.90
7196;DHT22;3639;51.308;5.624;2024-03-17T13:03:24;14.60;99.90
7196;DHT22;3639;51.308;5.624;2024-03-17T13:05:49;14.60;99.90
7196;DHT22;3639;51.308;5.624;2024-03-17T13:08:15;14.70;99.90
7196;DHT22;3639;51.308;5.624;2024-03-17T13:10:41;14.70;99.90
7196;DHT22;3639;51.308;5.624;2024-03-17T13:13:08;14.80;99.90
7196;DHT22;3639;51.308;5.624;2024-03-17T13:15:36;14.90;99.90
7196;DHT22;3639;51.308;5.624;2024-03-17T13:18:02;15.00;99.90
7196;DHT22;3639;51.308;5.624;2024-03-17T13:20:32;15.10;99.90
7196;DHT22;3639;51.308;5.624;2024-03-17T13:22:58;15.30;99.90
7196;DHT22;3639;51.308;5.624;2024-03-17T13:25:29;15.60;99.90
7196;DHT22;3639;51.308;5.624;2024-03-17T13:27:59;15.80;99.90
7196;DHT22;3639;51.308;5.624;2024-03-17T13:30:26;16.00;99.90
7196;DHT22;3639;51.308;5.624;2024-03-17T13:32:54;16.00;99.90
7196;DHT22;3639;51.308;5.624;2024-03-17T13:35:27;16.10;99.90
7196;DHT22;3639;51.308;5.624;2024-03-17T13:37:54;16.00;99.90
7196;DHT22;3639;51.308;5.624;2024-03-17T13:40:21;16.00;99.90
7196;DHT22;3639;51.308;5.624;2024-03-17T13:42:51;16.00;99.90
7196;DHT22;3639;51.308;5.624;2024-03-17T13:45:18;15.90;99.90
7196;DHT22;3639;51.308;5.624;2024-03-17T13:47:59;15.90;99.90
7196;DHT22;3639;51.308;5.624;2024-03-17T13:50:25;15.90;99.90
7196;DHT22;3639;51.308;5.624;2024-03-17T13:52:51;15.90;99.90
7196;DHT22;3639;51.308;5.624;2024-03-17T13:55:24;15.90;99.90
7196;DHT22;3639;51.308;5.624;2024-03-17T13:57:52;15.90;99.90
7196;DHT22;3639;51.308;5.624;2024-03-17T14:00:23;16.00;99.90
7196;DHT22;3639;51.308;5.624;2024-03-17T14:02:50;16.00;99.90
7196;DHT22;3639;51.308;5.624;2024-03-17T14:05:20;16.00;99.90
7196;DHT22;3639;51.308;5.624;2024-03-17T14:07:46;15.90;99.90
7196;DHT22;3639;51.308;5.624;2024-03-17T14:10:17;15.70;99.90
7196;DHT22;3639;51.308;5.624;2024-03-17T14:12:43;15.60;99.90
7196;DHT22;3639;51.308;5.624;2024-03-17T14:15:11;15.60;99.90
7196;DHT22;3639;51.308;5.624;2024-03-17T14:17:42;15.60;99.90
7196;DHT22;3639;51.308;5.624;2024-03-17T14:20:08;15.70;99.90
7196;DHT22;3639;51.308;5.624;2024-03-17T14:22:37;15.60;99.90
7196;DHT22;3639;51.308;5.624;2024-03-17T14:25:06;15.50;99.90
7196;DHT22;3639;51.308;5.624;2024-03-17T14:27:32;15.40;99.90
7196;DHT22;3639;51.308;5.624;2024-03-17T14:29:59;15.40;99.90
7196;DHT22;3639;51.308;5.624;2024-03-17T14:32:24;15.30;99.90
7196;DHT22;3639;51.308;5.624;2024-03-17T14:34:50;15.30;99.90
7196;DHT22;3639;51.308;5.624;2024-03-17T14:37:15;15.30;99.90
7196;DHT22;3639;51.308;5.624;2024-03-17T14:39:41;15.30;99.90
7196;DHT22;3639;51.308;5.624;2024-03-17T14:42:07;15.30;99.90
7196;DHT22;3639;51.308;5.624;2024-03-17T14:44:34;15.30;99.90
7196;DHT22;3639;51.308;5.624;2024-03-17T14:47:01;15.30;99.90
7196;DHT22;3639;51.308;5.624;2024-03-17T14:49:26;15.40;99.90
7196;DHT22;3639;51.308;5.624;2024-03-17T14:51:53;15.40;99.90
7196;DHT22;3639;51.308;5.624;2024-03-17T14:54:18;15.50;99.90
7196;DHT22;3639;51.308;5.624;2024-03-17T14:56:45;15.50;99.90
7196;DHT22;3639;51.308;5.624;2024-03-17T14:59:10;15.50;99.90
7196;DHT22;3639;51.308;5.624;2024-03-17T15:01:37;15.50;99.90
7196;DHT22;3639;51.308;5.624;2024-03-17T15:04:03;15.50;99.90
7196;DHT22;3639;51.308;5.624;2024-03-17T15:06:28;15.60;99.90
7196;DHT22;3639;51.308;5.624;2024-03-17T15:08:54;15.60;99.90
7196;DHT22;3639;51.308;5.624;2024-03-17T15:11:19;15.60;99.90
7196;DHT22;3639;51.308;5.624;2024-03-17T15:13:45;15.70;99.90
7196;DHT22;3639;51.308;5.624;2024-03-17T15:16:11;15.80;99.90
7196;DHT22;3639;51.308;5.624;2024-03-17T15:18:38;15.90;99.90
7196;DHT22;3639;51.308;5.624;2024-03-17T15:21:03;16.00;99.90
7196;DHT22;3639;51.308;5.624;2024-03-17T15:23:32;16.00;99.90
7196;DHT22;3639;51.308;5.624;2024-03-17T15:26:05;16.10;99.90
7196;DHT22;3639;51.308;5.624;2024-03-17T15:28:34;16.20;99.90
7196;DHT22;3639;51.308;5.624;2024-03-17T15:31:02;16.20;99.90
7196;DHT22;3639;51.308;5.624;2024-03-17T15:33:28;16.20;99.90
7196;DHT22;3639;51.308;5.624;2024-03-17T15:35:54;16.10;99.90
7196;DHT22;3639;51.308;5.624;2024-03-17T15:38:19;16.10;99.90
7196;DHT22;3639;51.308;5.624;2024-03-17T15:40:47;16.00;99.90
7196;DHT22;3639;51.308;5.624;2024-03-17T15:43:13;15.90;99.90
7196;DHT22;3639;51.308;5.624;2024-03-17T15:45:38;15.90;99.90
7196;DHT22;3639;51.308;5.624;2024-03-17T15:48:05;15.80;99.90
7196;DHT22;3639;51.308;5.624;2024-03-17T15:50:30;15.70;99.90
7196;DHT22;3639;51.308;5.624;2024-03-17T15:52:56;15.60;99.90
7196;DHT22;3639;51.308;5.624;2024-03-17T15:55:22;15.60;99.90
7196;DHT22;3639;51.308;5.624;2024-03-17T15:57:48;15.50;99.90
7196;DHT22;3639;51.308;5.624;2024-03-17T16:00:14;15.50;99.90
7196;DHT22;3639;51.308;5.624;2024-03-17T16:02:44;15.50;99.90
7196;DHT22;3639;51.308;5.624;2024-03-17T16:05:15;15.50;99.90
7196;DHT22;3639;51.308;5.624;2024-03-17T16:07:42;15.40;99.90
7196;DHT22;3639;51.308;5.624;2024-03-17T16:10:11;15.40;99.90
7196;DHT22;3639;51.308;5.624;2024-03-17T16:12:39;15.30;99.90
7196;DHT22;3639;51.308;5.624;2024-03-17T16:15:06;15.30;99.90
7196;DHT22;3639;51.308;5.624;2024-03-17T16:17:33;15.30;99.90
7196;DHT22;3639;51.308;5.624;2024-03-17T16:20:01;15.30;99.90
7196;DHT22;3639;51.308;5.624;2024-03-17T16:22:36;15.30;99.90
7196;DHT22;3639;51.308;5.624;2024-03-17T16:25:03;15.20;99.90
7196;DHT22;3639;51.308;5.624;2024-03-17T16:27:30;15.30;99.90
7196;DHT22;3639;51.308;5.624;2024-03-17T16:29:56;15.20;99.90
7196;DHT22;3639;51.308;5.624;2024-03-17T16:32:23;15.10;99.90
7196;DHT22;3639;51.308;5.624;2024-03-17T16:34:48;15.00;99.90
7196;DHT22;3639;51.308;5.624;2024-03-17T16:37:14;14.90;99.90
7196;DHT22;3639;51.308;5.624;2024-03-17T16:39:39;14.80;99.90
7196;DHT22;3639;51.308;5.624;2024-03-17T16:42:05;14.80;99.90
7196;DHT22;3639;51.308;5.624;2024-03-17T16:44:44;14.80;99.90